Terminal Aerodrome Forecast
Issued by NWS Denver/Boulder, CO

Home | Current Version | Previous Version | Text Only | Print | Product List | Glossary On
Versions: 1 2 3 4 5 6 7 8 9 10 11 12 13 14 15 16 17 18 19 20 21 22 23 24 25 26 27 28 29 30 31 32 33 34
000
FTUS45 KBOU 170835 AAA
TAFDEN
TAF AMD
KDEN 170835Z 1709/1812 23013G20KT P6SM FEW120 BKN220
     FM171800 28016G24KT P6SM FEW120 BKN220
     FM180000 34022G35KT P6SM BKN080 PROB30 1800/1804 -SHRA SCT020
      OVC050
     FM180800 32018KT P6SM BKN080
     FM181100 30011KT P6SM SCT090=

USA.gov is the U.S. government's official web portal to all federal, state and local government web resources and services.